Time;durP1;ratioP1;P1;durP2;ratioP2;P2;SDS_P1;SDS_P2;PMS_P1;PMS_P2;Temp;Humidity;BMP_temperature;BMP_pressure;BME280_temperature;BME280_humidity;BME280_pressure;Samples;Min_cycle;Max_cycle;Signal;HPM_P1;HPM_P2
2021/06/14 00:00:12;;;;;;;;;;;;;;;16.25;66.21;96693.84;1054872;28;19916;-76
2021/06/14 00:00:42;;;;;;;;;;;;;;;16.25;66.43;96696.53;1054310;28;20375;-76
2021/06/14 00:01:12;;;;;;;;;;;;;;;16.22;67.03;96699.78;1053600;28;19916;-76
2021/06/14 00:01:43;;;;;;;;;;;;;;;16.18;67.35;96699.59;1053217;28;19908;-76
2021/06/14 00:02:13;;;;;;;;;;;;;;;16.19;66.52;96697.69;1049156;28;20356;-77
2021/06/14 00:02:44;;;;;;;;;;;;;;;16.20;66.58;96704.69;1044787;28;19909;-76
2021/06/14 00:03:14;;;;;;;;;;;;;;;16.21;66.77;96696.28;1049020;28;19916;-76
2021/06/14 00:03:44;;;;;;;;;;;;;;;16.18;66.55;96698.78;1053366;28;19954;-77
2021/06/14 00:04:15;;;;;;;;;;;;;;;16.10;67.65;96698.31;1057845;28;19915;-76
2021/06/14 00:04:45;;;;;;;;;;;;;;;16.07;67.91;96698.91;1061234;28;19908;-76
2021/06/14 00:05:27;;;;;;;;;;;;;;;16.06;68.61;96701.88;1053058;28;20369;-76
2021/06/14 00:05:58;;;;;;;;;;;;;;;16.01;69.30;96701.94;1053045;28;19916;-76
2021/06/14 00:06:28;;;;;;;;;;;;;;;15.94;69.85;96699.59;1053065;28;20364;-76
2021/06/14 00:06:58;;;;;;;;;;;;;;;15.92;70.54;96703.63;1052860;28;19916;-76
2021/06/14 00:07:28;;;;;;;;;;;;;;;15.87;71.24;96699.13;1052985;28;19944;-76
2021/06/14 00:07:59;;;;;;;;;;;;;;;15.81;71.23;96708.34;1052921;28;19917;-77
2021/06/14 00:08:29;;;;;;;;;;;;;;;15.80;71.83;96709.44;1053026;28;19904;-76
2021/06/14 00:09:00;;;;;;;;;;;;;;;15.77;72.22;96704.63;1052970;28;19924;-76
2021/06/14 00:09:30;;;;;;;;;;;;;;;15.74;72.19;96705.19;1053097;28;19957;-76
2021/06/14 00:10:01;;;;;;;;;;;;;;;15.69;72.09;96708.75;1052600;28;19923;-77
2021/06/14 00:10:31;;;;;;;;;;;;;;;15.67;72.48;96704.75;1048543;28;19909;-76
2021/06/14 00:11:01;;;;;;;;;;;;;;;15.64;72.54;96706.09;1048477;28;19916;-76
2021/06/14 00:11:32;;;;;;;;;;;;;;;15.63;72.96;96709.06;1048549;28;19952;-76
2021/06/14 00:12:02;;;;;;;;;;;;;;;15.61;73.47;96703.97;1052649;28;19916;-77
2021/06/14 00:12:33;;;;;;;;;;;;;;;15.60;73.04;96711.22;1056868;28;19904;-76
2021/06/14 00:13:03;;;;;;;;;;;;;;;15.65;73.11;96712.28;1052862;28;20324;-76
2021/06/14 00:13:34;;;;;;;;;;;;;;;15.60;72.70;96705.81;1052981;28;19904;-76
2021/06/14 00:14:04;;;;;;;;;;;;;;;15.52;73.49;96705.66;1052966;28;19959;-76
2021/06/14 00:14:34;;;;;;;;;;;;;;;15.49;73.43;96701.63;1053026;28;19908;-75
2021/06/14 00:15:05;;;;;;;;;;;;;;;15.50;73.27;96705.13;1052857;28;19916;-76
2021/06/14 00:15:36;;;;;;;;;;;;;;;15.46;74.05;96704.91;1053025;28;19908;-76
2021/06/14 00:16:06;;;;;;;;;;;;;;;15.39;74.32;96707.09;1052605;28;19919;-76
2021/06/14 00:16:37;;;;;;;;;;;;;;;15.35;74.53;96706.06;1052703;28;19995;-76
2021/06/14 00:17:08;;;;;;;;;;;;;;;15.34;74.88;96712.53;1052629;28;19958;-76
2021/06/14 00:17:38;;;;;;;;;;;;;;;15.31;74.94;96707.72;1052649;28;19958;-76
2021/06/14 00:18:08;;;;;;;;;;;;;;;15.27;75.32;96704.00;1052954;28;19912;-76
2021/06/14 00:18:38;;;;;;;;;;;;;;;15.25;75.15;96708.84;1053114;28;19916;-76
2021/06/14 00:19:09;;;;;;;;;;;;;;;15.25;75.54;96711.53;1053761;28;19908;-75
2021/06/14 00:19:39;;;;;;;;;;;;;;;15.23;75.36;96709.13;1053803;28;19912;-76
2021/06/14 00:20:10;;;;;;;;;;;;;;;15.27;75.43;96707.47;1053819;28;19954;-76
2021/06/14 00:20:40;;;;;;;;;;;;;;;15.28;75.31;96708.28;1053714;28;20388;-76
2021/06/14 00:21:11;;;;;;;;;;;;;;;15.28;75.37;96708.28;1053756;28;19912;-75
2021/06/14 00:21:41;;;;;;;;;;;;;;;15.29;75.62;96712.56;1053749;28;19914;-76
2021/06/14 00:22:12;;;;;;;;;;;;;;;15.29;75.52;96709.88;1053725;28;19908;-76
2021/06/14 00:22:42;;;;;;;;;;;;;;;15.30;75.61;96706.09;1049150;28;19995;-76
2021/06/14 00:23:13;;;;;;;;;;;;;;;15.32;75.39;96714.72;1049300;28;19912;-76
2021/06/14 00:23:43;;;;;;;;;;;;;;;15.36;75.21;96704.19;1049290;28;20362;-76
2021/06/14 00:24:13;;;;;;;;;;;;;;;15.37;75.17;96711.19;1049369;28;20057;-76
2021/06/14 00:24:43;;;;;;;;;;;;;;;15.42;75.05;96720.00;1053731;28;19915;-76
2021/06/14 00:25:15;;;;;;;;;;;;;;;15.44;74.76;96711.66;1053748;28;19909;-76
2021/06/14 00:25:45;;;;;;;;;;;;;;;15.44;74.68;96717.84;1053752;28;19908;-76
2021/06/14 00:26:16;;;;;;;;;;;;;;;15.40;74.92;96716.78;1053822;28;19924;-77
2021/06/14 00:26:46;;;;;;;;;;;;;;;15.37;75.21;96711.19;1053803;28;20269;-76
2021/06/14 00:27:16;;;;;;;;;;;;;;;15.42;74.74;96716.53;1053724;28;20391;-75
2021/06/14 00:27:47;;;;;;;;;;;;;;;15.40;74.82;96716.78;1053727;28;19950;-75
2021/06/14 00:28:17;;;;;;;;;;;;;;;15.37;74.86;96719.25;1053510;28;20278;-76
2021/06/14 00:28:47;;;;;;;;;;;;;;;15.42;74.40;96703.84;1053458;28;20376;-76
2021/06/14 00:29:18;;;;;;;;;;;;;;;15.47;74.00;96709.19;1053489;28;19908;-76
2021/06/14 00:29:48;;;;;;;;;;;;;;;15.47;74.13;96711.88;1053297;28;19922;-75
2021/06/14 00:30:21;;;;;;;;;;;;;;;15.49;74.00;96709.72;1053751;28;19962;-75
2021/06/14 00:30:51;;;;;;;;;;;;;;;15.46;74.40;96715.69;1053819;28;20418;-75
2021/06/14 00:31:22;;;;;;;;;;;;;;;15.51;74.07;96715.63;1053382;28;19938;-75
2021/06/14 00:31:52;;;;;;;;;;;;;;;15.48;73.90;96705.41;1053393;28;19953;-75
2021/06/14 00:32:22;;;;;;;;;;;;;;;15.49;73.68;96708.91;1053405;28;19943;-75
2021/06/14 00:32:53;;;;;;;;;;;;;;;15.49;74.13;96709.72;1053308;28;19908;-76
2021/06/14 00:33:23;;;;;;;;;;;;;;;15.50;74.15;96711.31;1053771;28;20003;-76
2021/06/14 00:33:54;;;;;;;;;;;;;;;15.50;74.70;96708.63;1053619;28;20343;-75
2021/06/14 00:34:24;;;;;;;;;;;;;;;15.52;74.31;96703.75;1053722;28;19908;-75
2021/06/14 00:34:54;;;;;;;;;;;;;;;15.48;74.35;96710.00;1053682;28;20346;-75
2021/06/14 00:35:24;;;;;;;;;;;;;;;15.53;74.10;96710.75;1053786;28;19953;-76
2021/06/14 00:35:55;;;;;;;;;;;;;;;15.56;73.93;96707.50;1053655;28;19919;-75
2021/06/14 00:36:25;;;;;;;;;;;;;;;15.51;74.18;96707.53;1053848;28;20008;-75
2021/06/14 00:36:55;;;;;;;;;;;;;;;15.48;74.33;96707.31;1053687;28;20379;-76
2021/06/14 00:37:25;;;;;;;;;;;;;;;15.48;74.43;96707.31;1053760;28;19912;-76
2021/06/14 00:37:56;;;;;;;;;;;;;;;15.47;74.31;96703.81;1053619;28;19908;-76
2021/06/14 00:38:26;;;;;;;;;;;;;;;15.43;74.56;96710.03;1053748;28;19920;-76
2021/06/14 00:38:56;;;;;;;;;;;;;;;15.40;74.86;96703.31;1053731;28;19911;-77
2021/06/14 00:39:27;;;;;;;;;;;;;;;15.38;75.19;96702.00;1053732;28;20250;-76
2021/06/14 00:39:57;;;;;;;;;;;;;;;15.35;75.30;96703.38;1053623;28;19940;-76
2021/06/14 00:40:27;;;;;;;;;;;;;;;15.31;75.13;96703.16;1053741;28;19901;-76
2021/06/14 00:40:57;;;;;;;;;;;;;;;15.26;75.63;96699.69;1053712;28;19915;-76
2021/06/14 00:41:28;;;;;;;;;;;;;;;15.24;76.08;96699.97;1053682;28;19946;-76
2021/06/14 00:41:58;;;;;;;;;;;;;;;15.22;76.23;96698.66;1053546;28;20369;-76
2021/06/14 00:42:28;;;;;;;;;;;;;;;15.22;75.83;96699.44;1053929;28;19999;-76
2021/06/14 00:42:59;;;;;;;;;;;;;;;15.24;75.78;96701.84;1053587;28;19950;-76
2021/06/14 00:43:29;;;;;;;;;;;;;;;15.22;76.09;96698.66;1053767;28;20347;-76
2021/06/14 00:43:59;;;;;;;;;;;;;;;15.26;75.90;96702.38;1053618;28;19904;-76
2021/06/14 00:44:29;;;;;;;;;;;;;;;15.28;75.96;96697.50;1053686;28;19900;-76
2021/06/14 00:45:00;;;;;;;;;;;;;;;15.25;75.74;96700.75;1053648;28;19958;-75
2021/06/14 00:45:31;;;;;;;;;;;;;;;15.27;75.86;96701.28;1053767;28;19939;-75
2021/06/14 00:46:01;;;;;;;;;;;;;;;15.32;75.54;96701.25;1053625;28;19923;-75
2021/06/14 00:46:33;;;;;;;;;;;;;;;15.27;75.44;96695.91;1053814;28;19939;-76
2021/06/14 00:47:04;;;;;;;;;;;;;;;15.26;75.35;96691.63;1053755;28;19911;-76
2021/06/14 00:47:34;;;;;;;;;;;;;;;15.25;75.67;96688.13;1053517;28;19995;-76
2021/06/14 00:48:05;;;;;;;;;;;;;;;15.28;75.36;96692.94;1053306;28;20353;-76
2021/06/14 00:48:35;;;;;;;;;;;;;;;15.29;75.52;96691.84;1053371;28;19904;-76
2021/06/14 00:49:05;;;;;;;;;;;;;;;15.36;75.38;96693.41;1053416;28;19912;-76
2021/06/14 00:49:35;;;;;;;;;;;;;;;15.39;74.60;96696.31;1053691;28;20357;-76
2021/06/14 00:50:06;;;;;;;;;;;;;;;15.38;72.58;96685.84;1053394;28;19911;-76
2021/06/14 00:50:38;;;;;;;;;;;;;;;15.37;72.12;96693.13;1053349;28;19962;-76
2021/06/14 00:51:08;;;;;;;;;;;;;;;15.32;71.92;96693.19;1053398;28;20377;-76
2021/06/14 00:51:38;;;;;;;;;;;;;;;15.28;71.46;96697.50;1054765;28;19905;-76
2021/06/14 00:52:08;;;;;;;;;;;;;;;15.34;71.58;96691.00;1055919;28;19904;-76
2021/06/14 00:52:39;;;;;;;;;;;;;;;15.34;70.99;96691.00;1055136;28;19910;-76
2021/06/14 00:53:28;;;;;;;;;;;;;;;15.40;70.38;96689.84;1055660;28;19908;-76
2021/06/14 00:53:59;;;;;;;;;;;;;;;15.39;69.59;96688.25;1051563;28;19954;-76
2021/06/14 00:54:30;;;;;;;;;;;;;;;15.42;69.41;96693.09;1053524;28;19966;-75
2021/06/14 00:55:00;;;;;;;;;;;;;;;15.44;69.42;96687.41;1055645;28;20342;-76
2021/06/14 00:55:30;;;;;;;;;;;;;;;15.40;69.81;96689.84;1055555;28;19905;-76
2021/06/14 00:56:01;;;;;;;;;;;;;;;15.40;69.92;96680.97;1055872;28;19965;-76
2021/06/14 00:56:31;;;;;;;;;;;;;;;15.34;69.65;96689.09;1055870;28;19928;-76
2021/06/14 00:57:01;;;;;;;;;;;;;;;15.34;69.89;96683.72;1055615;28;19904;-76
2021/06/14 00:57:32;;;;;;;;;;;;;;;15.38;69.94;96683.97;1055510;28;19912;-77
2021/06/14 00:58:02;;;;;;;;;;;;;;;15.38;69.64;96688.53;1055903;28;20029;-76
2021/06/14 00:58:32;;;;;;;;;;;;;;;15.33;69.66;96679.41;1055962;28;19929;-76
2021/06/14 00:59:03;;;;;;;;;;;;;;;15.38;69.86;96683.97;1055493;28;19916;-76
2021/06/14 00:59:33;;;;;;;;;;;;;;;15.40;69.37;96689.84;1055985;28;19904;-76
2021/06/14 01:00:04;;;;;;;;;;;;;;;15.43;69.36;96688.50;1055667;28;20391;-76
2021/06/14 01:00:34;;;;;;;;;;;;;;;15.41;69.41;96688.78;1055179;28;19934;-76
2021/06/14 01:01:05;;;;;;;;;;;;;;;15.44;69.66;96685.50;1055314;28;19915;-76
2021/06/14 01:01:35;;;;;;;;;;;;;;;15.39;69.06;96682.88;1055553;28;19955;-76
2021/06/14 01:02:05;;;;;;;;;;;;;;;15.44;69.20;96680.13;1055587;28;19947;-75
2021/06/14 01:02:35;;;;;;;;;;;;;;;15.41;69.17;96685.28;1060074;28;19908;-76
2021/06/14 01:03:06;;;;;;;;;;;;;;;15.37;69.44;96686.94;1060081;28;19914;-75
2021/06/14 01:03:36;;;;;;;;;;;;;;;15.34;69.26;96678.31;1055364;28;20370;-75
2021/06/14 01:04:06;;;;;;;;;;;;;;;15.39;69.39;96677.47;1051184;28;19904;-76
2021/06/14 01:04:37;;;;;;;;;;;;;;;15.38;69.58;96677.78;1051473;28;19905;-76
2021/06/14 01:05:08;;;;;;;;;;;;;;;15.36;69.72;96680.75;1047356;28;19912;-76
2021/06/14 01:05:39;;;;;;;;;;;;;;;15.37;69.36;96676.97;1054880;28;19908;-75
2021/06/14 01:06:10;;;;;;;;;;;;;;;15.37;69.41;96676.97;1059024;28;19908;-76
2021/06/14 01:06:41;;;;;;;;;;;;;;;15.38;69.47;96681.25;1057984;28;19915;-75
2021/06/14 01:07:11;;;;;;;;;;;;;;;15.36;69.88;96675.38;1061256;27;19973;-76
2021/06/14 01:07:42;;;;;;;;;;;;;;;15.34;69.82;96681.00;1053357;28;20338;-75
2021/06/14 01:08:12;;;;;;;;;;;;;;;15.38;69.80;96677.78;1053395;28;19904;-76
2021/06/14 01:08:43;;;;;;;;;;;;;;;15.39;69.61;96682.88;1053372;28;19915;-75
2021/06/14 01:09:14;;;;;;;;;;;;;;;15.33;69.51;96675.94;1053393;28;19912;-76
2021/06/14 01:09:44;;;;;;;;;;;;;;;15.36;69.22;96674.56;1053382;28;19920;-76
2021/06/14 01:10:14;;;;;;;;;;;;;;;15.40;69.23;96680.97;1053384;28;19904;-76
2021/06/14 01:10:46;;;;;;;;;;;;;;;15.41;69.23;96675.31;1053344;28;19919;-76
2021/06/14 01:11:37;;;;;;;;;;;;;;;15.40;69.36;96680.97;1057550;28;19908;-76
2021/06/14 01:12:08;;;;;;;;;;;;;;;15.41;69.44;96674.53;1053346;28;20325;-76
2021/06/14 01:12:42;;;;;;;;;;;;;;;15.36;69.63;96679.97;1049136;28;19908;-76
2021/06/14 01:13:22;;;;;;;;;;;;;;;15.33;69.29;96676.72;1049099;28;19913;-76
2021/06/14 01:13:59;;;;;;;;;;;;;;;15.32;69.52;96668.94;1046910;28;20389;-76
2021/06/14 01:14:33;;;;;;;;;;;;;;;15.30;69.55;96682.69;1047734;28;19912;-75
2021/06/14 01:15:11;;;;;;;;;;;;;;;15.29;69.36;96681.06;1049165;28;19913;-76
2021/06/14 01:15:43;;;;;;;;;;;;;;;15.23;69.53;96674.13;1047551;28;20289;-76
2021/06/14 01:16:16;;;;;;;;;;;;;;;15.15;70.00;96677.44;1051014;28;19958;-75
2021/06/14 01:17:07;;;;;;;;;;;;;;;15.12;69.95;96675.31;1053412;28;19912;-75
2021/06/14 01:17:38;;;;;;;;;;;;;;;15.08;69.88;96675.06;1052883;28;20383;-75
2021/06/14 01:18:09;;;;;;;;;;;;;;;15.08;70.26;96675.06;1052575;28;19919;-76
2021/06/14 01:18:48;;;;;;;;;;;;;;;15.11;70.21;96673.69;1058408;28;19907;-76
2021/06/14 01:19:48;;;;;;;;;;;;;;;15.11;70.24;96675.59;1056470;28;19915;-76
2021/06/14 01:20:36;;;;;;;;;;;;;;;15.09;70.11;96673.16;1051434;28;19927;-76
2021/06/14 01:21:16;;;;;;;;;;;;;;;15.12;70.31;96669.13;1055260;28;19908;-77
2021/06/14 01:21:46;;;;;;;;;;;;;;;15.13;70.08;96670.72;1049521;28;19916;-77
2021/06/14 01:22:28;;;;;;;;;;;;;;;15.09;70.33;96673.16;1049511;28;19914;-76
2021/06/14 01:23:01;;;;;;;;;;;;;;;15.12;69.86;96671.81;1052072;28;19908;-75
2021/06/14 01:23:47;;;;;;;;;;;;;;;15.12;70.34;96667.22;1053372;28;19957;-75
2021/06/14 01:24:20;;;;;;;;;;;;;;;15.13;70.19;96673.41;1053541;28;19911;-76
2021/06/14 01:24:50;;;;;;;;;;;;;;;15.17;70.50;96667.19;1053513;28;20038;-76
2021/06/14 01:25:24;;;;;;;;;;;;;;;15.19;70.38;96675.75;1053499;28;20425;-75
2021/06/14 01:25:58;;;;;;;;;;;;;;;15.20;70.34;96674.72;1053514;28;19912;-76
2021/06/14 01:26:30;;;;;;;;;;;;;;;15.19;70.04;96666.88;1053517;28;19926;-74
2021/06/14 01:27:02;;;;;;;;;;;;;;;15.20;69.80;96671.19;1053227;28;19909;-75
2021/06/14 01:27:32;;;;;;;;;;;;;;;15.24;69.92;96669.53;1053174;28;19912;-75
2021/06/14 01:28:03;;;;;;;;;;;;;;;15.24;69.94;96674.91;1053237;28;19908;-77
2021/06/14 01:28:33;;;;;;;;;;;;;;;15.24;69.70;96670.34;1053238;28;19904;-75
2021/06/14 01:29:03;;;;;;;;;;;;;;;15.23;69.73;96671.44;1053510;28;19961;-76
2021/06/14 01:29:34;;;;;;;;;;;;;;;15.22;69.89;96664.44;1048992;28;19911;-75
2021/06/14 01:30:08;;;;;;;;;;;;;;;15.21;70.25;96664.72;1048615;28;19967;-75
2021/06/14 01:30:39;;;;;;;;;;;;;;;15.20;70.01;96671.19;1048545;28;19923;-76
2021/06/14 01:31:09;;;;;;;;;;;;;;;15.13;70.42;96668.81;1046120;28;20358;-75
2021/06/14 01:31:39;;;;;;;;;;;;;;;15.14;70.15;96672.31;1049057;28;19924;-75
2021/06/14 01:32:09;;;;;;;;;;;;;;;15.06;70.32;96663.78;1049035;28;19923;-76
2021/06/14 01:32:40;;;;;;;;;;;;;;;15.05;70.59;96670.25;1044765;28;19970;-76
2021/06/14 01:33:10;;;;;;;;;;;;;;;15.05;70.54;96661.38;1044811;28;19970;-75
2021/06/14 01:33:40;;;;;;;;;;;;;;;15.07;70.74;96659.19;1048994;28;19927;-75
2021/06/14 01:34:11;;;;;;;;;;;;;;;15.05;70.25;96654.09;1049070;28;19908;-76
2021/06/14 01:34:41;;;;;;;;;;;;;;;15.05;70.47;96662.16;1048982;28;19923;-75
2021/06/14 01:35:11;;;;;;;;;;;;;;;15.04;70.37;96655.16;1049058;28;19958;-75
2021/06/14 01:35:45;;;;;;;;;;;;;;;15.07;70.50;96654.59;1049038;28;20030;-77
2021/06/14 01:36:16;;;;;;;;;;;;;;;15.02;70.30;96649.25;1049555;28;20431;-76
2021/06/14 01:36:47;;;;;;;;;;;;;;;14.96;70.53;96652.28;1053176;28;19947;-75
2021/06/14 01:37:17;;;;;;;;;;;;;;;14.98;70.47;96652.78;1053227;28;19919;-77
2021/06/14 01:37:48;;;;;;;;;;;;;;;14.91;70.80;96653.13;1048891;28;19916;-76
2021/06/14 01:38:18;;;;;;;;;;;;;;;14.96;70.54;96654.97;1048885;28;20415;-76
2021/06/14 01:38:49;;;;;;;;;;;;;;;14.91;71.02;96649.63;1049023;28;19916;-76
2021/06/14 01:39:19;;;;;;;;;;;;;;;14.83;71.08;96659.09;1049208;28;19908;-76
2021/06/14 01:39:49;;;;;;;;;;;;;;;14.81;71.27;96653.22;1053080;28;20327;-76
2021/06/14 01:40:19;;;;;;;;;;;;;;;14.82;71.31;96652.13;1053061;28;19955;-76
2021/06/14 01:40:51;;;;;;;;;;;;;;;14.76;71.64;96659.44;1053172;28;19912;-76
2021/06/14 01:41:22;;;;;;;;;;;;;;;14.73;71.48;96651.09;1053133;28;20377;-76
2021/06/14 01:41:53;;;;;;;;;;;;;;;14.77;71.46;96652.16;1053165;28;20001;-76
2021/06/14 01:42:23;;;;;;;;;;;;;;;14.77;71.21;96652.16;1048871;28;20374;-76
2021/06/14 01:42:55;;;;;;;;;;;;;;;14.76;71.31;96653.25;1049342;28;20324;-77
2021/06/14 01:43:26;;;;;;;;;;;;;;;14.75;71.56;96659.72;1049058;28;20003;-76
2021/06/14 01:43:56;;;;;;;;;;;;;;;14.77;71.58;96661.03;1049202;28;19916;-77
2021/06/14 01:44:27;;;;;;;;;;;;;;;14.72;71.59;96657.56;1048975;28;19909;-77
2021/06/14 01:44:57;;;;;;;;;;;;;;;14.68;71.93;96656.50;1053158;28;20017;-77
2021/06/14 01:45:28;;;;;;;;;;;;;;;14.71;71.57;96655.97;1053180;28;19915;-77
2021/06/14 01:45:59;;;;;;;;;;;;;;;14.69;71.90;96652.75;1053353;28;20261;-76
2021/06/14 01:46:30;;;;;;;;;;;;;;;14.59;72.20;96659.00;1048753;28;19931;-76
2021/06/14 01:47:02;;;;;;;;;;;;;;;14.59;72.21;96661.72;1044806;28;19999;-77
2021/06/14 01:47:32;;;;;;;;;;;;;;;14.53;72.17;96658.22;1040792;28;19909;-77
2021/06/14 01:48:02;;;;;;;;;;;;;;;14.60;72.01;96657.13;1037326;28;20394;-76
2021/06/14 01:48:33;;;;;;;;;;;;;;;14.62;72.00;96652.25;1045056;28;19995;-76
2021/06/14 01:49:06;;;;;;;;;;;;;;;14.65;71.82;96657.09;1048995;28;19962;-77
2021/06/14 01:49:37;;;;;;;;;;;;;;;14.60;72.12;96652.53;1049384;28;20379;-76
2021/06/14 01:50:07;;;;;;;;;;;;;;;14.60;72.01;96662.50;1048946;28;19909;-76
2021/06/14 01:50:37;;;;;;;;;;;;;;;14.56;72.10;96656.88;1044784;28;19967;-76
2021/06/14 01:51:08;;;;;;;;;;;;;;;14.52;72.32;96659.31;1040708;28;20370;-76
2021/06/14 01:51:38;;;;;;;;;;;;;;;14.45;72.50;96656.09;1044929;28;19911;-76
2021/06/14 01:52:09;;;;;;;;;;;;;;;14.50;72.31;96660.69;1049072;28;19911;-77
2021/06/14 01:52:39;;;;;;;;;;;;;;;14.51;72.41;96654.22;1048942;28;19939;-77
2021/06/14 01:53:09;;;;;;;;;;;;;;;14.46;72.66;96656.91;1048975;28;19904;-76
2021/06/14 01:53:40;;;;;;;;;;;;;;;14.48;72.47;96660.94;1048990;28;19944;-76
2021/06/14 01:54:10;;;;;;;;;;;;;;;14.46;72.24;96655.00;1053108;28;19914;-77
2021/06/14 01:54:40;;;;;;;;;;;;;;;14.45;72.72;96653.41;1053217;28;19909;-76
2021/06/14 01:55:12;;;;;;;;;;;;;;;14.44;72.88;96648.31;1048953;28;19974;-76
2021/06/14 01:55:42;;;;;;;;;;;;;;;14.41;72.97;96651.56;1053181;28;19919;-76
2021/06/14 01:56:12;;;;;;;;;;;;;;;14.37;72.90;96645.91;1049103;28;20009;-76
2021/06/14 01:56:44;;;;;;;;;;;;;;;14.40;72.83;96656.13;1053350;28;19926;-75
2021/06/14 01:57:14;;;;;;;;;;;;;;;14.33;72.76;96655.66;1057162;28;19908;-76
2021/06/14 01:57:44;;;;;;;;;;;;;;;14.34;72.89;96648.38;1053179;28;20410;-76
2021/06/14 01:58:15;;;;;;;;;;;;;;;14.32;72.80;96652.13;1048928;28;19942;-76
2021/06/14 01:58:45;;;;;;;;;;;;;;;14.34;72.86;96651.06;1049038;28;19916;-76
2021/06/14 01:59:18;;;;;;;;;;;;;;;14.25;73.35;96650.84;1053117;28;20422;-76
2021/06/14 01:59:48;;;;;;;;;;;;;;;14.23;73.70;96647.63;1053071;28;19900;-76
2021/06/14 02:00:21;;;;;;;;;;;;;;;14.24;73.61;96646.56;1053201;28;19916;-76
2021/06/14 02:00:52;;;;;;;;;;;;;;;14.22;73.53;96644.13;1053105;28;20342;-76
2021/06/14 02:01:22;;;;;;;;;;;;;;;14.26;73.35;96644.38;1053163;28;19990;-76
2021/06/14 02:01:52;;;;;;;;;;;;;;;14.32;73.28;96643.25;1053151;28;19915;-76
2021/06/14 02:02:23;;;;;;;;;;;;;;;14.32;73.20;96643.25;1048992;28;20436;-76
2021/06/14 02:02:53;;;;;;;;;;;;;;;14.34;73.57;96641.13;1048961;28;19962;-76
2021/06/14 02:03:23;;;;;;;;;;;;;;;14.36;72.96;96641.63;1053128;28;19908;-76
2021/06/14 02:03:55;;;;;;;;;;;;;;;14.36;73.14;96638.13;1053137;28;20357;-76
2021/06/14 02:04:26;;;;;;;;;;;;;;;14.33;73.13;96636.81;1053141;28;19914;-76
2021/06/14 02:04:56;;;;;;;;;;;;;;;14.27;73.21;96637.91;1048893;28;19931;-76
2021/06/14 02:05:27;;;;;;;;;;;;;;;14.27;73.36;96635.22;1049136;28;20369;-77
2021/06/14 02:05:57;;;;;;;;;;;;;;;14.30;73.10;96632.78;1048946;28;19912;-76
2021/06/14 02:06:29;;;;;;;;;;;;;;;14.32;73.22;96635.19;1044806;28;19912;-76
2021/06/14 02:06:59;;;;;;;;;;;;;;;14.34;73.41;96635.75;1049178;28;19950;-76
2021/06/14 02:07:30;;;;;;;;;;;;;;;14.36;73.34;96632.75;1052855;28;19981;-76
2021/06/14 02:08:00;;;;;;;;;;;;;;;14.37;73.39;96632.47;1049111;28;20122;-76
2021/06/14 02:08:30;;;;;;;;;;;;;;;14.32;73.34;96637.88;1048933;28;19944;-76
2021/06/14 02:09:04;;;;;;;;;;;;;;;14.27;73.59;96629.84;1048907;28;19962;-76
2021/06/14 02:09:35;;;;;;;;;;;;;;;14.28;73.82;96623.41;1053081;28;20007;-76
2021/06/14 02:10:05;;;;;;;;;;;;;;;14.19;74.13;96628.56;1053088;28;20341;-76
2021/06/14 02:10:35;;;;;;;;;;;;;;;14.22;73.87;96632.56;1053097;28;19915;-76
2021/06/14 02:11:06;;;;;;;;;;;;;;;14.16;74.26;96631.78;1053120;28;19919;-77
2021/06/14 02:11:37;;;;;;;;;;;;;;;14.20;73.98;96629.34;1053059;28;19910;-76
2021/06/14 02:12:10;;;;;;;;;;;;;;;14.16;74.26;96626.41;1053048;28;20357;-76
2021/06/14 02:12:41;;;;;;;;;;;;;;;14.15;74.23;96632.06;1053120;28;20321;-76
2021/06/14 02:13:11;;;;;;;;;;;;;;;14.17;74.26;96633.38;1053094;28;19922;-76
2021/06/14 02:13:41;;;;;;;;;;;;;;;14.22;74.35;96627.19;1053085;28;19908;-76
2021/06/14 02:14:13;;;;;;;;;;;;;;;14.19;74.16;96627.75;1048737;28;20297;-75
2021/06/14 02:14:44;;;;;;;;;;;;;;;14.21;74.33;96625.59;1048874;28;20418;-77
2021/06/14 02:15:15;;;;;;;;;;;;;;;14.19;74.05;96623.19;1049195;28;19938;-76
2021/06/14 02:15:46;;;;;;;;;;;;;;;14.14;74.37;96622.41;1049203;28;20006;-76
2021/06/14 02:16:16;;;;;;;;;;;;;;;14.09;74.93;96625.13;1048878;28;19951;-76
2021/06/14 02:16:46;;;;;;;;;;;;;;;14.12;74.50;96627.25;1048816;28;19915;-76
2021/06/14 02:17:17;;;;;;;;;;;;;;;14.15;74.52;96624.00;1044746;28;19905;-76
2021/06/14 02:17:47;;;;;;;;;;;;;;;14.14;74.89;96627.78;1048940;28;19909;-76
2021/06/14 02:18:18;;;;;;;;;;;;;;;14.15;74.28;96624.00;1048813;28;19909;-76
2021/06/14 02:18:48;;;;;;;;;;;;;;;14.11;74.39;96626.44;1048950;28;20353;-77
2021/06/14 02:19:19;;;;;;;;;;;;;;;14.07;74.43;96622.69;1048878;28;19955;-76
2021/06/14 02:19:49;;;;;;;;;;;;;;;14.03;74.57;96619.78;1044667;28;20064;-76
2021/06/14 02:20:19;;;;;;;;;;;;;;;14.09;74.59;96625.13;1048869;28;19909;-76
2021/06/14 02:20:50;;;;;;;;;;;;;;;14.01;74.86;96621.91;1048868;28;19977;-76
2021/06/14 02:21:20;;;;;;;;;;;;;;;13.96;75.14;96621.13;1048961;28;19919;-76
2021/06/14 02:21:50;;;;;;;;;;;;;;;13.96;74.78;96621.94;1053032;28;19919;-76
2021/06/14 02:22:21;;;;;;;;;;;;;;;13.98;74.64;96622.47;1052998;28;20296;-77
2021/06/14 02:22:51;;;;;;;;;;;;;;;13.98;74.63;96616.31;1053068;28;19924;-76
2021/06/14 02:23:21;;;;;;;;;;;;;;;13.93;74.92;96621.72;1053371;28;19946;-76
2021/06/14 02:23:52;;;;;;;;;;;;;;;13.91;74.86;96619.28;1053374;28;19912;-76
2021/06/14 02:24:22;;;;;;;;;;;;;;;13.93;74.81;96617.13;1053345;28;19912;-76
2021/06/14 02:24:52;;;;;;;;;;;;;;;13.94;74.74;96624.09;1052937;28;20376;-76
2021/06/14 02:25:22;;;;;;;;;;;;;;;13.94;74.98;96621.44;1048941;28;19912;-76
2021/06/14 02:25:53;;;;;;;;;;;;;;;13.92;74.70;96620.91;1048920;28;19999;-76
2021/06/14 02:26:23;;;;;;;;;;;;;;;13.94;74.97;96626.78;1048758;28;19912;-76
2021/06/14 02:26:53;;;;;;;;;;;;;;;13.95;74.74;96622.22;1053098;28;19962;-76
2021/06/14 02:27:24;;;;;;;;;;;;;;;13.92;74.93;96617.38;1048787;28;19909;-75
2021/06/14 02:27:54;;;;;;;;;;;;;;;13.93;75.07;96625.19;1053042;28;19916;-77
2021/06/14 02:28:24;;;;;;;;;;;;;;;13.95;74.90;96620.34;1052850;28;19918;-75
2021/06/14 02:28:54;;;;;;;;;;;;;;;13.97;74.58;96618.19;1053033;28;19966;-76
2021/06/14 02:29:25;;;;;;;;;;;;;;;13.99;74.43;96621.41;1053321;28;19972;-75
2021/06/14 02:29:55;;;;;;;;;;;;;;;13.93;74.94;96619.81;1052999;28;19912;-76
2021/06/14 02:30:25;;;;;;;;;;;;;;;13.94;74.70;96621.44;1048752;28;19916;-76
2021/06/14 02:30:56;;;;;;;;;;;;;;;13.95;75.03;96624.91;1048842;28;20400;-75
2021/06/14 02:31:26;;;;;;;;;;;;;;;13.92;74.96;96618.22;1048907;28;19966;-76
2021/06/14 02:31:56;;;;;;;;;;;;;;;13.94;74.82;96616.06;1048788;28;19912;-76
2021/06/14 02:32:27;;;;;;;;;;;;;;;13.83;74.90;96619.88;1052975;28;20468;-75
2021/06/14 02:32:57;;;;;;;;;;;;;;;13.78;75.16;96618.00;1052846;28;19974;-75
2021/06/14 02:33:27;;;;;;;;;;;;;;;13.82;75.16;96615.56;1048845;28;19924;-75
2021/06/14 02:33:57;;;;;;;;;;;;;;;13.83;74.89;96609.13;1052828;28;20380;-76
2021/06/14 02:34:28;;;;;;;;;;;;;;;13.73;75.32;96615.34;1052878;28;19912;-75
2021/06/14 02:34:58;;;;;;;;;;;;;;;13.73;75.21;96617.22;1052973;28;19912;-75
2021/06/14 02:35:28;;;;;;;;;;;;;;;13.69;75.35;96613.47;1048783;28;20325;-76
2021/06/14 02:35:59;;;;;;;;;;;;;;;13.70;75.41;96615.88;1048767;28;19913;-76
2021/06/14 02:36:29;;;;;;;;;;;;;;;13.70;75.43;96609.69;1052877;28;19916;-75
2021/06/14 02:37:00;;;;;;;;;;;;;;;13.72;75.11;96612.94;1052981;28;20026;-76
2021/06/14 02:37:31;;;;;;;;;;;;;;;13.73;75.07;96612.66;1052970;28;19931;-75
2021/06/14 02:38:02;;;;;;;;;;;;;;;13.64;75.22;96611.59;1052935;28;19912;-76
2021/06/14 02:38:32;;;;;;;;;;;;;;;13.65;75.51;96615.09;1052955;28;19997;-76
2021/06/14 02:39:12;;;;;;;;;;;;;;;13.70;75.19;96612.38;1048881;28;20336;-75
2021/06/14 02:39:43;;;;;;;;;;;;;;;13.67;75.26;96613.75;1048781;28;19916;-76
2021/06/14 02:40:13;;;;;;;;;;;;;;;13.65;75.44;96605.16;1048784;28;20005;-76
2021/06/14 02:40:44;;;;;;;;;;;;;;;13.63;75.23;96612.69;1050258;28;19920;-76
2021/06/14 02:41:14;;;;;;;;;;;;;;;13.61;75.51;96614.03;1053287;28;20288;-76
2021/06/14 02:41:44;;;;;;;;;;;;;;;13.60;75.29;96612.41;1052632;28;19912;-76
2021/06/14 02:42:15;;;;;;;;;;;;;;;13.55;75.72;96618.59;1052879;28;19913;-76
2021/06/14 02:42:45;;;;;;;;;;;;;;;13.50;75.76;96618.63;1052886;28;20360;-76